sensor_id;sensor_type;location;lat;lon;timestamp;temperature;humidity
73137;DHT22;62977;45.636;11.750;2022-11-30T00:02:16;5.90;79.10
73137;DHT22;62977;45.636;11.750;2022-11-30T00:04:41;5.90;79.30
73137;DHT22;62977;45.636;11.750;2022-11-30T00:07:07;5.90;79.20
73137;DHT22;62977;45.636;11.750;2022-11-30T00:09:33;5.90;79.70
73137;DHT22;62977;45.636;11.750;2022-11-30T00:11:58;5.90;79.50
73137;DHT22;62977;45.636;11.750;2022-11-30T00:14:24;6.10;79.30
73137;DHT22;62977;45.636;11.750;2022-11-30T00:16:50;5.90;79.40
73137;DHT22;62977;45.636;11.750;2022-11-30T00:19:15;5.80;79.50
73137;DHT22;62977;45.636;11.750;2022-11-30T00:21:41;5.80;79.30
73137;DHT22;62977;45.636;11.750;2022-11-30T00:24:07;5.90;79.20
73137;DHT22;62977;45.636;11.750;2022-11-30T00:26:32;5.90;79.10
73137;DHT22;62977;45.636;11.750;2022-11-30T00:28:58;5.90;79.10
73137;DHT22;62977;45.636;11.750;2022-11-30T00:31:24;5.90;79.00
73137;DHT22;62977;45.636;11.750;2022-11-30T00:33:49;6.00;78.70
73137;DHT22;62977;45.636;11.750;2022-11-30T00:36:20;6.10;78.20
73137;DHT22;62977;45.636;11.750;2022-11-30T00:38:47;6.10;78.90
73137;DHT22;62977;45.636;11.750;2022-11-30T00:41:14;6.10;78.60
73137;DHT22;62977;45.636;11.750;2022-11-30T00:43:40;6.10;78.70
73137;DHT22;62977;45.636;11.750;2022-11-30T00:46:06;6.20;78.50
73137;DHT22;62977;45.636;11.750;2022-11-30T00:48:34;6.20;78.80
73137;DHT22;62977;45.636;11.750;2022-11-30T00:50:59;6.20;78.50
73137;DHT22;62977;45.636;11.750;2022-11-30T00:53:25;6.20;78.20
73137;DHT22;62977;45.636;11.750;2022-11-30T00:55:51;6.30;78.50
73137;DHT22;62977;45.636;11.750;2022-11-30T00:58:16;6.40;78.80
73137;DHT22;62977;45.636;11.750;2022-11-30T01:00:43;6.50;78.50
73137;DHT22;62977;45.636;11.750;2022-11-30T01:03:09;6.40;78.50
73137;DHT22;62977;45.636;11.750;2022-11-30T01:05:35;6.60;78.40
73137;DHT22;62977;45.636;11.750;2022-11-30T01:08:05;6.50;78.40
73137;DHT22;62977;45.636;11.750;2022-11-30T01:10:36;6.50;78.30
73137;DHT22;62977;45.636;11.750;2022-11-30T01:13:03;6.70;78.10
73137;DHT22;62977;45.636;11.750;2022-11-30T01:15:29;6.70;77.70
73137;DHT22;62977;45.636;11.750;2022-11-30T01:17:55;6.50;77.40
73137;DHT22;62977;45.636;11.750;2022-11-30T01:20:21;6.60;77.80
73137;DHT22;62977;45.636;11.750;2022-11-30T01:22:46;6.80;77.80
73137;DHT22;62977;45.636;11.750;2022-11-30T01:25:12;6.70;77.70
73137;DHT22;62977;45.636;11.750;2022-11-30T01:27:38;6.60;77.70
73137;DHT22;62977;45.636;11.750;2022-11-30T01:30:04;6.70;77.70
73137;DHT22;62977;45.636;11.750;2022-11-30T01:32:30;6.80;77.60
73137;DHT22;62977;45.636;11.750;2022-11-30T01:34:56;6.70;77.90
73137;DHT22;62977;45.636;11.750;2022-11-30T01:37:21;6.80;77.90
73137;DHT22;62977;45.636;11.750;2022-11-30T01:39:47;7.00;77.80
73137;DHT22;62977;45.636;11.750;2022-11-30T01:42:18;6.90;77.90
73137;DHT22;62977;45.636;11.750;2022-11-30T01:44:52;7.00;77.70
73137;DHT22;62977;45.636;11.750;2022-11-30T01:52:39;6.70;77.20
73137;DHT22;62977;45.636;11.750;2022-11-30T01:55:28;6.90;77.10
73137;DHT22;62977;45.636;11.750;2022-11-30T01:57:58;6.90;77.10
73137;DHT22;62977;45.636;11.750;2022-11-30T02:00:25;7.10;76.80
73137;DHT22;62977;45.636;11.750;2022-11-30T02:05:53;7.30;77.30
73137;DHT22;62977;45.636;11.750;2022-11-30T02:08:19;7.10;77.50
73137;DHT22;62977;45.636;11.750;2022-11-30T02:10:52;7.10;77.70
73137;DHT22;62977;45.636;11.750;2022-11-30T02:22:09;7.10;78.10
73137;DHT22;62977;45.636;11.750;2022-11-30T02:30:08;6.80;78.80
73137;DHT22;62977;45.636;11.750;2022-11-30T02:32:39;6.70;79.00
73137;DHT22;62977;45.636;11.750;2022-11-30T02:35:09;6.70;79.10
73137;DHT22;62977;45.636;11.750;2022-11-30T02:37:37;6.70;78.50
73137;DHT22;62977;45.636;11.750;2022-11-30T02:40:09;6.80;78.30
73137;DHT22;62977;45.636;11.750;2022-11-30T02:42:35;6.70;78.20
73137;DHT22;62977;45.636;11.750;2022-11-30T02:45:01;6.80;78.20
73137;DHT22;62977;45.636;11.750;2022-11-30T02:50:27;7.00;77.90
73137;DHT22;62977;45.636;11.750;2022-11-30T02:52:56;7.00;77.80
73137;DHT22;62977;45.636;11.750;2022-11-30T02:55:22;7.00;77.70
73137;DHT22;62977;45.636;11.750;2022-11-30T02:57:48;6.90;77.60
73137;DHT22;62977;45.636;11.750;2022-11-30T03:00:14;7.10;77.80
73137;DHT22;62977;45.636;11.750;2022-11-30T03:02:40;7.10;77.50
73137;DHT22;62977;45.636;11.750;2022-11-30T03:05:06;7.00;77.80
73137;DHT22;62977;45.636;11.750;2022-11-30T03:07:32;7.10;77.50
73137;DHT22;62977;45.636;11.750;2022-11-30T03:09:58;7.10;77.80
73137;DHT22;62977;45.636;11.750;2022-11-30T03:12:24;7.10;77.70
73137;DHT22;62977;45.636;11.750;2022-11-30T03:14:50;7.10;77.50
73137;DHT22;62977;45.636;11.750;2022-11-30T03:17:16;7.00;77.40
73137;DHT22;62977;45.636;11.750;2022-11-30T03:19:42;7.10;77.00
73137;DHT22;62977;45.636;11.750;2022-11-30T03:22:08;7.10;77.50
73137;DHT22;62977;45.636;11.750;2022-11-30T03:24:34;7.20;77.30
73137;DHT22;62977;45.636;11.750;2022-11-30T03:26:59;7.10;77.10
73137;DHT22;62977;45.636;11.750;2022-11-30T03:29:25;7.00;77.30
73137;DHT22;62977;45.636;11.750;2022-11-30T03:31:51;7.20;77.00
73137;DHT22;62977;45.636;11.750;2022-11-30T03:34:17;7.20;77.40
73137;DHT22;62977;45.636;11.750;2022-11-30T03:36:42;7.10;77.50
73137;DHT22;62977;45.636;11.750;2022-11-30T03:39:08;7.20;77.40
73137;DHT22;62977;45.636;11.750;2022-11-30T03:41:34;7.20;77.50
73137;DHT22;62977;45.636;11.750;2022-11-30T03:44:00;7.30;77.40
73137;DHT22;62977;45.636;11.750;2022-11-30T03:46:25;7.30;77.30
73137;DHT22;62977;45.636;11.750;2022-11-30T03:48:52;7.40;77.30
73137;DHT22;62977;45.636;11.750;2022-11-30T03:51:18;7.30;77.30
73137;DHT22;62977;45.636;11.750;2022-11-30T03:53:43;7.20;77.50
73137;DHT22;62977;45.636;11.750;2022-11-30T03:56:10;7.30;77.70
73137;DHT22;62977;45.636;11.750;2022-11-30T03:58:36;7.20;77.60
73137;DHT22;62977;45.636;11.750;2022-11-30T04:03:36;7.30;77.40
73137;DHT22;62977;45.636;11.750;2022-11-30T04:06:02;7.20;77.50
73137;DHT22;62977;45.636;11.750;2022-11-30T04:08:29;7.30;77.20
73137;DHT22;62977;45.636;11.750;2022-11-30T04:10:57;7.20;77.30
73137;DHT22;62977;45.636;11.750;2022-11-30T04:13:23;7.30;77.40
73137;DHT22;62977;45.636;11.750;2022-11-30T04:15:51;7.30;77.10
73137;DHT22;62977;45.636;11.750;2022-11-30T04:18:18;7.30;77.20
73137;DHT22;62977;45.636;11.750;2022-11-30T04:20:44;7.30;76.80
73137;DHT22;62977;45.636;11.750;2022-11-30T04:23:11;7.20;77.40
73137;DHT22;62977;45.636;11.750;2022-11-30T04:25:40;7.30;77.30
73137;DHT22;62977;45.636;11.750;2022-11-30T04:28:07;7.10;76.80
73137;DHT22;62977;45.636;11.750;2022-11-30T04:30:34;7.20;76.80
73137;DHT22;62977;45.636;11.750;2022-11-30T04:33:00;7.30;76.90
73137;DHT22;62977;45.636;11.750;2022-11-30T04:35:26;7.30;76.80
73137;DHT22;62977;45.636;11.750;2022-11-30T04:37:52;7.30;77.10
73137;DHT22;62977;45.636;11.750;2022-11-30T04:40:18;7.30;77.00
73137;DHT22;62977;45.636;11.750;2022-11-30T04:42:44;7.30;77.20
73137;DHT22;62977;45.636;11.750;2022-11-30T04:45:10;7.30;77.30
73137;DHT22;62977;45.636;11.750;2022-11-30T04:47:36;7.20;77.40
73137;DHT22;62977;45.636;11.750;2022-11-30T04:50:03;7.20;77.50
73137;DHT22;62977;45.636;11.750;2022-11-30T04:52:29;7.20;77.80
73137;DHT22;62977;45.636;11.750;2022-11-30T04:54:55;7.20;77.60
73137;DHT22;62977;45.636;11.750;2022-11-30T04:57:21;7.10;77.40
73137;DHT22;62977;45.636;11.750;2022-11-30T04:59:47;7.20;77.70
73137;DHT22;62977;45.636;11.750;2022-11-30T05:02:13;7.20;77.50
73137;DHT22;62977;45.636;11.750;2022-11-30T05:04:38;7.20;77.00
73137;DHT22;62977;45.636;11.750;2022-11-30T05:07:04;7.30;77.20
73137;DHT22;62977;45.636;11.750;2022-11-30T05:09:30;7.20;77.20
73137;DHT22;62977;45.636;11.750;2022-11-30T05:11:56;7.20;77.40
73137;DHT22;62977;45.636;11.750;2022-11-30T05:14:22;7.20;77.60
73137;DHT22;62977;45.636;11.750;2022-11-30T05:16:47;7.20;77.30
73137;DHT22;62977;45.636;11.750;2022-11-30T05:19:14;7.30;77.40
73137;DHT22;62977;45.636;11.750;2022-11-30T05:21:40;7.30;77.30
73137;DHT22;62977;45.636;11.750;2022-11-30T05:24:06;7.20;77.50
73137;DHT22;62977;45.636;11.750;2022-11-30T05:26:34;7.10;77.60
73137;DHT22;62977;45.636;11.750;2022-11-30T05:29:00;7.30;77.50
73137;DHT22;62977;45.636;11.750;2022-11-30T05:31:25;7.20;77.40
73137;DHT22;62977;45.636;11.750;2022-11-30T05:33:52;7.20;77.50
73137;DHT22;62977;45.636;11.750;2022-11-30T05:36:18;7.10;77.70
73137;DHT22;62977;45.636;11.750;2022-11-30T05:38:44;7.00;77.70
73137;DHT22;62977;45.636;11.750;2022-11-30T05:41:10;7.20;77.60
73137;DHT22;62977;45.636;11.750;2022-11-30T05:43:36;7.10;77.60
73137;DHT22;62977;45.636;11.750;2022-11-30T05:46:03;7.00;78.00
73137;DHT22;62977;45.636;11.750;2022-11-30T05:48:29;7.00;77.90
73137;DHT22;62977;45.636;11.750;2022-11-30T05:51:10;6.90;77.90
73137;DHT22;62977;45.636;11.750;2022-11-30T05:53:36;6.80;78.00
73137;DHT22;62977;45.636;11.750;2022-11-30T05:56:07;6.80;78.20
73137;DHT22;62977;45.636;11.750;2022-11-30T05:58:33;6.80;78.10
73137;DHT22;62977;45.636;11.750;2022-11-30T06:00:59;6.60;78.30
73137;DHT22;62977;45.636;11.750;2022-11-30T06:03:26;6.70;78.20
73137;DHT22;62977;45.636;11.750;2022-11-30T06:05:52;6.70;78.30
73137;DHT22;62977;45.636;11.750;2022-11-30T06:08:18;6.60;78.20
73137;DHT22;62977;45.636;11.750;2022-11-30T06:10:44;6.60;78.30
73137;DHT22;62977;45.636;11.750;2022-11-30T06:13:10;6.60;78.30
73137;DHT22;62977;45.636;11.750;2022-11-30T06:15:36;6.60;78.40
73137;DHT22;62977;45.636;11.750;2022-11-30T06:18:03;6.50;78.50
73137;DHT22;62977;45.636;11.750;2022-11-30T06:20:28;6.50;78.70
73137;DHT22;62977;45.636;11.750;2022-11-30T06:22:54;6.40;78.70
73137;DHT22;62977;45.636;11.750;2022-11-30T06:25:20;6.50;78.90
73137;DHT22;62977;45.636;11.750;2022-11-30T06:27:46;6.70;79.00
73137;DHT22;62977;45.636;11.750;2022-11-30T06:30:12;6.60;78.70
73137;DHT22;62977;45.636;11.750;2022-11-30T06:32:37;6.60;79.10
73137;DHT22;62977;45.636;11.750;2022-11-30T06:35:03;6.70;79.30
73137;DHT22;62977;45.636;11.750;2022-11-30T06:37:33;6.60;79.20
73137;DHT22;62977;45.636;11.750;2022-11-30T06:39:59;6.70;79.50
73137;DHT22;62977;45.636;11.750;2022-11-30T06:42:27;6.80;79.00
73137;DHT22;62977;45.636;11.750;2022-11-30T06:44:52;6.90;79.00
73137;DHT22;62977;45.636;11.750;2022-11-30T06:47:18;6.90;79.00
73137;DHT22;62977;45.636;11.750;2022-11-30T06:49:43;6.80;79.30
73137;DHT22;62977;45.636;11.750;2022-11-30T06:52:09;6.90;79.50
73137;DHT22;62977;45.636;11.750;2022-11-30T06:54:35;6.90;79.50
73137;DHT22;62977;45.636;11.750;2022-11-30T06:57:00;6.90;79.30
73137;DHT22;62977;45.636;11.750;2022-11-30T06:59:26;6.90;79.40
73137;DHT22;62977;45.636;11.750;2022-11-30T07:01:52;6.90;79.50
73137;DHT22;62977;45.636;11.750;2022-11-30T07:04:17;6.90;79.70
73137;DHT22;62977;45.636;11.750;2022-11-30T07:06:43;6.90;79.50
73137;DHT22;62977;45.636;11.750;2022-11-30T07:09:09;6.90;79.40
73137;DHT22;62977;45.636;11.750;2022-11-30T07:11:36;7.00;79.50
73137;DHT22;62977;45.636;11.750;2022-11-30T07:14:01;6.90;79.70
73137;DHT22;62977;45.636;11.750;2022-11-30T07:16:27;6.90;79.80
73137;DHT22;62977;45.636;11.750;2022-11-30T07:18:53;7.00;79.50
73137;DHT22;62977;45.636;11.750;2022-11-30T07:21:19;7.00;79.30
73137;DHT22;62977;45.636;11.750;2022-11-30T07:23:44;7.00;79.20
73137;DHT22;62977;45.636;11.750;2022-11-30T07:26:28;7.10;78.90
73137;DHT22;62977;45.636;11.750;2022-11-30T07:28:54;7.20;79.10
73137;DHT22;62977;45.636;11.750;2022-11-30T07:31:31;7.00;79.40
73137;DHT22;62977;45.636;11.750;2022-11-30T07:34:03;7.00;79.50
73137;DHT22;62977;45.636;11.750;2022-11-30T07:36:30;7.20;79.20
73137;DHT22;62977;45.636;11.750;2022-11-30T07:38:56;7.20;79.20
73137;DHT22;62977;45.636;11.750;2022-11-30T07:41:22;7.30;79.10
73137;DHT22;62977;45.636;11.750;2022-11-30T07:43:48;7.30;79.10
73137;DHT22;62977;45.636;11.750;2022-11-30T07:46:15;7.30;79.00
73137;DHT22;62977;45.636;11.750;2022-11-30T07:48:42;7.20;78.70
73137;DHT22;62977;45.636;11.750;2022-11-30T07:51:16;7.40;78.80
73137;DHT22;62977;45.636;11.750;2022-11-30T07:53:43;7.40;78.70
73137;DHT22;62977;45.636;11.750;2022-11-30T07:56:11;7.60;78.40
73137;DHT22;62977;45.636;11.750;2022-11-30T07:58:37;7.60;78.30
73137;DHT22;62977;45.636;11.750;2022-11-30T08:01:08;7.50;78.40
73137;DHT22;62977;45.636;11.750;2022-11-30T08:03:35;7.70;78.50
73137;DHT22;62977;45.636;11.750;2022-11-30T08:06:03;7.80;78.20
73137;DHT22;62977;45.636;11.750;2022-11-30T08:08:31;7.90;78.10
73137;DHT22;62977;45.636;11.750;2022-11-30T08:10:57;8.00;77.60
73137;DHT22;62977;45.636;11.750;2022-11-30T08:13:23;8.20;77.40
73137;DHT22;62977;45.636;11.750;2022-11-30T08:15:49;8.20;77.20
73137;DHT22;62977;45.636;11.750;2022-11-30T08:18:15;8.10;76.60
73137;DHT22;62977;45.636;11.750;2022-11-30T08:20:41;8.30;76.80
73137;DHT22;62977;45.636;11.750;2022-11-30T08:23:06;8.30;76.30
73137;DHT22;62977;45.636;11.750;2022-11-30T08:25:33;8.40;76.20
73137;DHT22;62977;45.636;11.750;2022-11-30T08:27:59;8.40;76.20
73137;DHT22;62977;45.636;11.750;2022-11-30T08:30:25;8.50;76.20
73137;DHT22;62977;45.636;11.750;2022-11-30T08:32:51;8.70;75.90
73137;DHT22;62977;45.636;11.750;2022-11-30T08:35:18;8.80;75.60
73137;DHT22;62977;45.636;11.750;2022-11-30T08:37:44;8.90;75.20
73137;DHT22;62977;45.636;11.750;2022-11-30T08:40:09;8.90;74.90
73137;DHT22;62977;45.636;11.750;2022-11-30T08:42:35;9.00;74.90
73137;DHT22;62977;45.636;11.750;2022-11-30T08:45:01;8.90;74.80
73137;DHT22;62977;45.636;11.750;2022-11-30T08:47:30;8.90;74.00
73137;DHT22;62977;45.636;11.750;2022-11-30T08:49:56;8.90;73.40
73137;DHT22;62977;45.636;11.750;2022-11-30T08:52:23;8.90;73.30
73137;DHT22;62977;45.636;11.750;2022-11-30T08:54:48;9.00;73.60
73137;DHT22;62977;45.636;11.750;2022-11-30T08:57:15;9.00;73.50
73137;DHT22;62977;45.636;11.750;2022-11-30T08:59:42;9.00;73.50
73137;DHT22;62977;45.636;11.750;2022-11-30T09:02:10;9.20;73.30
73137;DHT22;62977;45.636;11.750;2022-11-30T09:04:36;9.20;73.20
73137;DHT22;62977;45.636;11.750;2022-11-30T09:07:02;9.40;73.10
73137;DHT22;62977;45.636;11.750;2022-11-30T09:09:28;9.30;72.80
73137;DHT22;62977;45.636;11.750;2022-11-30T09:11:54;9.40;72.40
73137;DHT22;62977;45.636;11.750;2022-11-30T09:14:19;9.50;72.20
73137;DHT22;62977;45.636;11.750;2022-11-30T09:16:45;9.50;71.80
73137;DHT22;62977;45.636;11.750;2022-11-30T09:19:11;9.70;71.80
73137;DHT22;62977;45.636;11.750;2022-11-30T09:21:36;9.90;71.00
73137;DHT22;62977;45.636;11.750;2022-11-30T09:24:02;10.50;70.00
73137;DHT22;62977;45.636;11.750;2022-11-30T09:26:28;10.70;63.30
73137;DHT22;62977;45.636;11.750;2022-11-30T09:28:54;11.70;70.20
73137;DHT22;62977;45.636;11.750;2022-11-30T09:31:22;11.90;61.20
73137;DHT22;62977;45.636;11.750;2022-11-30T09:33:47;12.10;58.70
73137;DHT22;62977;45.636;11.750;2022-11-30T09:36:16;12.40;58.40
73137;DHT22;62977;45.636;11.750;2022-11-30T09:38:42;12.60;56.00
73137;DHT22;62977;45.636;11.750;2022-11-30T09:43:53;12.80;54.10
73137;DHT22;62977;45.636;11.750;2022-11-30T09:46:32;13.10;52.20
73137;DHT22;62977;45.636;11.750;2022-11-30T09:49:20;13.10;53.30
73137;DHT22;62977;45.636;11.750;2022-11-30T09:51:48;13.20;51.80
73137;DHT22;62977;45.636;11.750;2022-11-30T09:54:36;13.10;50.60
73137;DHT22;62977;45.636;11.750;2022-11-30T10:00:13;13.10;51.20
73137;DHT22;62977;45.636;11.750;2022-11-30T10:02:40;12.90;49.40
73137;DHT22;62977;45.636;11.750;2022-11-30T10:08:19;13.00;50.20
73137;DHT22;62977;45.636;11.750;2022-11-30T10:16:27;13.60;48.60
73137;DHT22;62977;45.636;11.750;2022-11-30T10:27:49;12.80;50.40
73137;DHT22;62977;45.636;11.750;2022-11-30T10:30:38;13.00;50.80
73137;DHT22;62977;45.636;11.750;2022-11-30T10:33:10;13.40;50.30
73137;DHT22;62977;45.636;11.750;2022-11-30T10:35:49;13.10;49.20
73137;DHT22;62977;45.636;11.750;2022-11-30T10:40:51;12.80;49.80
73137;DHT22;62977;45.636;11.750;2022-11-30T10:45:49;12.80;49.70
73137;DHT22;62977;45.636;11.750;2022-11-30T10:50:47;13.10;49.40
73137;DHT22;62977;45.636;11.750;2022-11-30T10:53:13;13.50;49.10
73137;DHT22;62977;45.636;11.750;2022-11-30T10:58:20;14.50;47.30
73137;DHT22;62977;45.636;11.750;2022-11-30T11:01:29;15.00;45.50
73137;DHT22;62977;45.636;11.750;2022-11-30T11:04:17;15.40;43.50
73137;DHT22;62977;45.636;11.750;2022-11-30T11:06:50;14.60;42.40
73137;DHT22;62977;45.636;11.750;2022-11-30T11:09:40;14.90;43.40
73137;DHT22;62977;45.636;11.750;2022-11-30T11:14:41;14.30;42.20
73137;DHT22;62977;45.636;11.750;2022-11-30T11:17:22;15.00;42.20
73137;DHT22;62977;45.636;11.750;2022-11-30T11:19:49;15.70;39.60
73137;DHT22;62977;45.636;11.750;2022-11-30T11:22:21;15.70;38.60
73137;DHT22;62977;45.636;11.750;2022-11-30T11:24:49;15.60;39.10
73137;DHT22;62977;45.636;11.750;2022-11-30T11:27:25;15.80;39.60
73137;DHT22;62977;45.636;11.750;2022-11-30T11:32:29;16.10;38.90
73137;DHT22;62977;45.636;11.750;2022-11-30T11:34:56;16.30;37.80
73137;DHT22;62977;45.636;11.750;2022-11-30T11:37:27;16.30;37.60
73137;DHT22;62977;45.636;11.750;2022-11-30T11:40:17;15.90;38.20
73137;DHT22;62977;45.636;11.750;2022-11-30T11:42:51;15.70;39.20
73137;DHT22;62977;45.636;11.750;2022-11-30T11:45:34;15.90;39.50
73137;DHT22;62977;45.636;11.750;2022-11-30T11:48:04;15.50;37.20
73137;DHT22;62977;45.636;11.750;2022-11-30T11:50:34;15.70;38.80
73137;DHT22;62977;45.636;11.750;2022-11-30T11:55:57;15.70;38.60
73137;DHT22;62977;45.636;11.750;2022-11-30T11:58:40;15.70;38.10
73137;DHT22;62977;45.636;11.750;2022-11-30T12:01:14;16.10;37.40
73137;DHT22;62977;45.636;11.750;2022-11-30T12:03:59;16.50;37.70
73137;DHT22;62977;45.636;11.750;2022-11-30T12:06:28;16.50;38.00
73137;DHT22;62977;45.636;11.750;2022-11-30T12:09:11;17.00;36.60
73137;DHT22;62977;45.636;11.750;2022-11-30T12:11:44;17.40;36.00
73137;DHT22;62977;45.636;11.750;2022-11-30T12:14:15;17.30;37.50
73137;DHT22;62977;45.636;11.750;2022-11-30T12:27:12;16.30;38.20
73137;DHT22;62977;45.636;11.750;2022-11-30T12:29:51;15.80;39.30
73137;DHT22;62977;45.636;11.750;2022-11-30T12:41:15;14.90;43.10
73137;DHT22;62977;45.636;11.750;2022-11-30T12:46:47;14.20;43.20
73137;DHT22;62977;45.636;11.750;2022-11-30T12:54:42;14.00;43.50
73137;DHT22;62977;45.636;11.750;2022-11-30T12:57:17;13.80;44.00
73137;DHT22;62977;45.636;11.750;2022-11-30T12:59:59;13.70;44.50
73137;DHT22;62977;45.636;11.750;2022-11-30T13:02:39;13.70;45.00
73137;DHT22;62977;45.636;11.750;2022-11-30T13:05:13;13.50;43.80
73137;DHT22;62977;45.636;11.750;2022-11-30T13:07:45;13.60;44.00
73137;DHT22;62977;45.636;11.750;2022-11-30T13:10:43;13.70;43.70
73137;DHT22;62977;45.636;11.750;2022-11-30T13:13:22;13.80;44.20
73137;DHT22;62977;45.636;11.750;2022-11-30T13:15:50;13.80;44.20
73137;DHT22;62977;45.636;11.750;2022-11-30T13:18:19;13.70;44.70
73137;DHT22;62977;45.636;11.750;2022-11-30T13:23:38;13.70;44.20
73137;DHT22;62977;45.636;11.750;2022-11-30T13:26:18;13.80;43.90
73137;DHT22;62977;45.636;11.750;2022-11-30T13:29:10;13.90;44.50
73137;DHT22;62977;45.636;11.750;2022-11-30T13:31:50;13.70;44.20
73137;DHT22;62977;45.636;11.750;2022-11-30T13:36:56;13.60;44.30
73137;DHT22;62977;45.636;11.750;2022-11-30T13:39:25;13.50;43.70
73137;DHT22;62977;45.636;11.750;2022-11-30T13:44:38;13.60;43.60
73137;DHT22;62977;45.636;11.750;2022-11-30T13:47:32;13.50;45.20
73137;DHT22;62977;45.636;11.750;2022-11-30T13:50:37;13.40;44.20
73137;DHT22;62977;45.636;11.750;2022-11-30T13:53:26;13.30;44.90
73137;DHT22;62977;45.636;11.750;2022-11-30T13:56:02;13.40;45.70
73137;DHT22;62977;45.636;11.750;2022-11-30T13:58:29;13.40;44.20
73137;DHT22;62977;45.636;11.750;2022-11-30T14:03:30;13.40;46.60
73137;DHT22;62977;45.636;11.750;2022-11-30T14:05:58;13.30;46.50
73137;DHT22;62977;45.636;11.750;2022-11-30T14:08:33;13.20;46.50
73137;DHT22;62977;45.636;11.750;2022-11-30T14:11:34;13.10;46.30
73137;DHT22;62977;45.636;11.750;2022-11-30T14:17:08;13.20;47.80
73137;DHT22;62977;45.636;11.750;2022-11-30T14:19:35;13.20;48.30
73137;DHT22;62977;45.636;11.750;2022-11-30T14:22:03;13.00;47.90
73137;DHT22;62977;45.636;11.750;2022-11-30T14:24:29;12.90;47.00
73137;DHT22;62977;45.636;11.750;2022-11-30T14:26:55;13.10;47.80
73137;DHT22;62977;45.636;11.750;2022-11-30T14:29:26;13.10;48.50
73137;DHT22;62977;45.636;11.750;2022-11-30T14:31:59;12.90;48.80
73137;DHT22;62977;45.636;11.750;2022-11-30T14:34:38;12.90;48.50
73137;DHT22;62977;45.636;11.750;2022-11-30T14:37:15;12.80;48.00
73137;DHT22;62977;45.636;11.750;2022-11-30T14:39:44;12.80;49.70
73137;DHT22;62977;45.636;11.750;2022-11-30T14:42:28;12.80;50.90
73137;DHT22;62977;45.636;11.750;2022-11-30T14:44:55;12.70;51.80
73137;DHT22;62977;45.636;11.750;2022-11-30T14:47:33;12.80;50.60
73137;DHT22;62977;45.636;11.750;2022-11-30T14:50:03;12.70;50.70
73137;DHT22;62977;45.636;11.750;2022-11-30T15:00:21;12.50;50.30
73137;DHT22;62977;45.636;11.750;2022-11-30T15:02:47;12.60;51.00
73137;DHT22;62977;45.636;11.750;2022-11-30T15:05:17;12.50;51.40
73137;DHT22;62977;45.636;11.750;2022-11-30T15:07:45;12.20;51.70
73137;DHT22;62977;45.636;11.750;2022-11-30T15:10:29;12.10;53.40
73137;DHT22;62977;45.636;11.750;2022-11-30T15:12:57;12.20;53.90
73137;DHT22;62977;45.636;11.750;2022-11-30T15:15:25;12.20;54.00
73137;DHT22;62977;45.636;11.750;2022-11-30T15:20:37;12.20;55.00
73137;DHT22;62977;45.636;11.750;2022-11-30T15:23:04;12.20;55.90
73137;DHT22;62977;45.636;11.750;2022-11-30T15:25:37;12.20;56.40
73137;DHT22;62977;45.636;11.750;2022-11-30T15:28:04;12.30;56.40
73137;DHT22;62977;45.636;11.750;2022-11-30T15:30:33;12.20;56.70
73137;DHT22;62977;45.636;11.750;2022-11-30T15:33:00;12.00;56.60
73137;DHT22;62977;45.636;11.750;2022-11-30T15:35:26;12.10;56.30
73137;DHT22;62977;45.636;11.750;2022-11-30T15:37:53;12.10;55.90
73137;DHT22;62977;45.636;11.750;2022-11-30T15:40:39;12.00;56.10
73137;DHT22;62977;45.636;11.750;2022-11-30T15:43:56;12.10;55.50
73137;DHT22;62977;45.636;11.750;2022-11-30T15:46:03;12.00;56.30
73137;DHT22;62977;45.636;11.750;2022-11-30T15:48:38;12.00;56.50
73137;DHT22;62977;45.636;11.750;2022-11-30T15:51:04;11.90;56.90
73137;DHT22;62977;45.636;11.750;2022-11-30T15:53:51;11.80;57.20
73137;DHT22;62977;45.636;11.750;2022-11-30T15:56:27;11.80;57.90
73137;DHT22;62977;45.636;11.750;2022-11-30T16:02:05;11.90;58.30
73137;DHT22;62977;45.636;11.750;2022-11-30T16:12:29;11.60;59.70
73137;DHT22;62977;45.636;11.750;2022-11-30T16:14:55;11.50;60.50
73137;DHT22;62977;45.636;11.750;2022-11-30T16:17:21;11.40;60.80
73137;DHT22;62977;45.636;11.750;2022-11-30T16:19:47;11.30;60.20
73137;DHT22;62977;45.636;11.750;2022-11-30T16:22:14;11.20;61.60
73137;DHT22;62977;45.636;11.750;2022-11-30T16:24:40;11.10;62.60
73137;DHT22;62977;45.636;11.750;2022-11-30T16:27:16;11.10;61.90
73137;DHT22;62977;45.636;11.750;2022-11-30T16:29:42;11.10;61.30
73137;DHT22;62977;45.636;11.750;2022-11-30T16:32:10;10.90;62.40
73137;DHT22;62977;45.636;11.750;2022-11-30T16:34:36;10.70;63.00
73137;DHT22;62977;45.636;11.750;2022-11-30T16:37:02;11.00;61.90
73137;DHT22;62977;45.636;11.750;2022-11-30T16:39:29;10.80;62.00
73137;DHT22;62977;45.636;11.750;2022-11-30T16:41:55;11.00;62.80
73137;DHT22;62977;45.636;11.750;2022-11-30T16:44:21;11.00;62.40
73137;DHT22;62977;45.636;11.750;2022-11-30T16:46:48;10.80;70.00
73137;DHT22;62977;45.636;11.750;2022-11-30T16:49:15;10.80;70.40
73137;DHT22;62977;45.636;11.750;2022-11-30T16:51:41;10.50;70.30
73137;DHT22;62977;45.636;11.750;2022-11-30T16:54:14;10.50;70.30
73137;DHT22;62977;45.636;11.750;2022-11-30T16:56:43;10.60;70.30
73137;DHT22;62977;45.636;11.750;2022-11-30T16:59:09;10.60;70.10
73137;DHT22;62977;45.636;11.750;2022-11-30T17:01:43;10.40;70.60
73137;DHT22;62977;45.636;11.750;2022-11-30T17:04:23;10.60;70.70
73137;DHT22;62977;45.636;11.750;2022-11-30T17:06:51;10.50;70.80
73137;DHT22;62977;45.636;11.750;2022-11-30T17:09:17;10.50;70.70
73137;DHT22;62977;45.636;11.750;2022-11-30T17:11:46;10.30;71.00
73137;DHT22;62977;45.636;11.750;2022-11-30T17:14:15;10.30;71.00
73137;DHT22;62977;45.636;11.750;2022-11-30T17:16:41;10.30;70.80
73137;DHT22;62977;45.636;11.750;2022-11-30T17:19:07;10.40;71.00
73137;DHT22;62977;45.636;11.750;2022-11-30T17:21:36;10.40;71.10
73137;DHT22;62977;45.636;11.750;2022-11-30T17:24:03;10.30;71.30
73137;DHT22;62977;45.636;11.750;2022-11-30T17:26:29;10.40;71.10
73137;DHT22;62977;45.636;11.750;2022-11-30T17:28:55;10.40;70.70
73137;DHT22;62977;45.636;11.750;2022-11-30T17:31:20;10.50;71.60
73137;DHT22;62977;45.636;11.750;2022-11-30T17:33:46;10.50;71.30
73137;DHT22;62977;45.636;11.750;2022-11-30T17:36:13;10.40;71.30
73137;DHT22;62977;45.636;11.750;2022-11-30T17:38:40;10.40;71.00
73137;DHT22;62977;45.636;11.750;2022-11-30T17:41:12;10.40;70.80
73137;DHT22;62977;45.636;11.750;2022-11-30T17:43:38;10.30;71.60
73137;DHT22;62977;45.636;11.750;2022-11-30T17:46:08;10.40;71.70
73137;DHT22;62977;45.636;11.750;2022-11-30T17:48:35;10.30;71.60
73137;DHT22;62977;45.636;11.750;2022-11-30T17:51:01;10.40;71.60